sensor_id;sensor_type;location;lat;lon;timestamp;temperature;humidity
15713;DHT22;7957;51.608;6.916;2022-10-28T02:24:47;16.10;99.90
15713;DHT22;7957;51.608;6.916;2022-10-28T02:27:20;16.10;99.90
15713;DHT22;7957;51.608;6.916;2022-10-28T02:29:56;16.10;99.90
15713;DHT22;7957;51.608;6.916;2022-10-28T02:32:30;16.00;99.90
15713;DHT22;7957;51.608;6.916;2022-10-28T02:35:00;16.00;99.90
15713;DHT22;7957;51.608;6.916;2022-10-28T02:37:31;16.00;99.90
15713;DHT22;7957;51.608;6.916;2022-10-28T02:40:03;16.00;99.90
15713;DHT22;7957;51.608;6.916;2022-10-28T02:42:37;15.90;99.90
15713;DHT22;7957;51.608;6.916;2022-10-28T02:45:09;15.90;99.90
15713;DHT22;7957;51.608;6.916;2022-10-28T02:47:40;16.00;99.90
15713;DHT22;7957;51.608;6.916;2022-10-28T02:50:13;15.90;99.90
15713;DHT22;7957;51.608;6.916;2022-10-28T02:52:47;15.90;99.90
15713;DHT22;7957;51.608;6.916;2022-10-28T02:55:18;15.90;99.90
15713;DHT22;7957;51.608;6.916;2022-10-28T02:57:46;15.90;99.90
15713;DHT22;7957;51.608;6.916;2022-10-28T03:00:16;15.90;99.90
15713;DHT22;7957;51.608;6.916;2022-10-28T03:02:47;15.90;99.90
15713;DHT22;7957;51.608;6.916;2022-10-28T03:05:14;15.80;99.90
15713;DHT22;7957;51.608;6.916;2022-10-28T03:07:41;15.80;99.90
15713;DHT22;7957;51.608;6.916;2022-10-28T03:10:08;15.80;99.90
15713;DHT22;7957;51.608;6.916;2022-10-28T03:12:40;15.80;99.90
15713;DHT22;7957;51.608;6.916;2022-10-28T03:15:07;15.80;99.90
15713;DHT22;7957;51.608;6.916;2022-10-28T03:17:34;15.80;99.90
15713;DHT22;7957;51.608;6.916;2022-10-28T03:20:05;15.80;99.90
15713;DHT22;7957;51.608;6.916;2022-10-28T03:22:35;15.80;99.90
15713;DHT22;7957;51.608;6.916;2022-10-28T03:25:05;15.80;99.90
15713;DHT22;7957;51.608;6.916;2022-10-28T03:27:39;15.80;99.90
15713;DHT22;7957;51.608;6.916;2022-10-28T03:30:07;15.80;99.90
15713;DHT22;7957;51.608;6.916;2022-10-28T03:32:34;15.70;99.90
15713;DHT22;7957;51.608;6.916;2022-10-28T03:35:01;15.70;99.90
15713;DHT22;7957;51.608;6.916;2022-10-28T03:37:28;15.70;99.90
15713;DHT22;7957;51.608;6.916;2022-10-28T03:39:58;15.70;99.90
15713;DHT22;7957;51.608;6.916;2022-10-28T03:42:29;15.70;99.90
15713;DHT22;7957;51.608;6.916;2022-10-28T03:45:00;15.70;99.90
15713;DHT22;7957;51.608;6.916;2022-10-28T03:47:26;15.70;99.90
15713;DHT22;7957;51.608;6.916;2022-10-28T03:49:56;15.70;99.90
15713;DHT22;7957;51.608;6.916;2022-10-28T03:52:26;15.70;99.90
15713;DHT22;7957;51.608;6.916;2022-10-28T03:54:53;15.60;99.90
15713;DHT22;7957;51.608;6.916;2022-10-28T03:57:20;15.60;99.90
15713;DHT22;7957;51.608;6.916;2022-10-28T03:59:50;15.60;99.90
15713;DHT22;7957;51.608;6.916;2022-10-28T04:02:21;15.50;99.90
15713;DHT22;7957;51.608;6.916;2022-10-28T04:04:48;15.50;99.90
15713;DHT22;7957;51.608;6.916;2022-10-28T04:07:15;15.50;99.90
15713;DHT22;7957;51.608;6.916;2022-10-28T04:09:45;15.40;99.90
15713;DHT22;7957;51.608;6.916;2022-10-28T04:12:17;15.40;99.90
15713;DHT22;7957;51.608;6.916;2022-10-28T04:14:44;15.40;99.90
15713;DHT22;7957;51.608;6.916;2022-10-28T04:17:11;15.40;99.90
15713;DHT22;7957;51.608;6.916;2022-10-28T04:19:45;15.30;99.90
15713;DHT22;7957;51.608;6.916;2022-10-28T04:22:15;15.30;99.90
15713;DHT22;7957;51.608;6.916;2022-10-28T04:24:42;15.30;99.90
15713;DHT22;7957;51.608;6.916;2022-10-28T04:27:09;15.30;99.90
15713;DHT22;7957;51.608;6.916;2022-10-28T04:29:36;15.30;99.90
15713;DHT22;7957;51.608;6.916;2022-10-28T04:32:07;15.20;99.90
15713;DHT22;7957;51.608;6.916;2022-10-28T04:34:34;15.20;99.90
15713;DHT22;7957;51.608;6.916;2022-10-28T04:37:03;15.20;99.90
15713;DHT22;7957;51.608;6.916;2022-10-28T04:39:33;15.20;99.90
15713;DHT22;7957;51.608;6.916;2022-10-28T04:42:03;15.10;99.90
15713;DHT22;7957;51.608;6.916;2022-10-28T04:44:30;15.10;99.90
15713;DHT22;7957;51.608;6.916;2022-10-28T04:46:57;15.10;99.90
15713;DHT22;7957;51.608;6.916;2022-10-28T04:49:24;15.10;99.90
15713;DHT22;7957;51.608;6.916;2022-10-28T04:51:50;15.10;99.90
15713;DHT22;7957;51.608;6.916;2022-10-28T04:54:19;15.10;99.90
15713;DHT22;7957;51.608;6.916;2022-10-28T04:56:46;15.00;99.90
15713;DHT22;7957;51.608;6.916;2022-10-28T04:59:13;15.00;99.90
15713;DHT22;7957;51.608;6.916;2022-10-28T05:01:40;15.00;99.90
15713;DHT22;7957;51.608;6.916;2022-10-28T05:04:07;15.00;99.90
15713;DHT22;7957;51.608;6.916;2022-10-28T05:06:34;15.00;99.90
15713;DHT22;7957;51.608;6.916;2022-10-28T05:09:00;15.00;99.90
15713;DHT22;7957;51.608;6.916;2022-10-28T05:11:29;15.00;99.90
15713;DHT22;7957;51.608;6.916;2022-10-28T05:13:56;15.00;99.90
15713;DHT22;7957;51.608;6.916;2022-10-28T05:16:23;15.00;99.90
15713;DHT22;7957;51.608;6.916;2022-10-28T05:18:50;15.00;99.90
15713;DHT22;7957;51.608;6.916;2022-10-28T05:21:17;15.00;99.90
15713;DHT22;7957;51.608;6.916;2022-10-28T05:23:44;15.00;99.90
15713;DHT22;7957;51.608;6.916;2022-10-28T05:26:12;15.00;99.90
15713;DHT22;7957;51.608;6.916;2022-10-28T05:28:43;15.00;99.90
15713;DHT22;7957;51.608;6.916;2022-10-28T05:31:15;15.00;99.90
15713;DHT22;7957;51.608;6.916;2022-10-28T05:33:42;15.00;99.90
15713;DHT22;7957;51.608;6.916;2022-10-28T05:36:09;15.10;99.90
15713;DHT22;7957;51.608;6.916;2022-10-28T05:38:36;15.00;99.90
15713;DHT22;7957;51.608;6.916;2022-10-28T05:41:04;15.10;99.90
15713;DHT22;7957;51.608;6.916;2022-10-28T05:43:31;15.00;99.90
15713;DHT22;7957;51.608;6.916;2022-10-28T05:46:00;15.10;99.90
15713;DHT22;7957;51.608;6.916;2022-10-28T05:48:28;15.00;99.90
15713;DHT22;7957;51.608;6.916;2022-10-28T05:50:55;15.00;99.90
15713;DHT22;7957;51.608;6.916;2022-10-28T05:53:22;15.10;99.90
15713;DHT22;7957;51.608;6.916;2022-10-28T05:55:48;15.10;99.90
15713;DHT22;7957;51.608;6.916;2022-10-28T05:58:15;15.00;99.90
15713;DHT22;7957;51.608;6.916;2022-10-28T06:00:42;15.00;99.90
15713;DHT22;7957;51.608;6.916;2022-10-28T06:03:11;15.00;99.90
15713;DHT22;7957;51.608;6.916;2022-10-28T06:05:40;15.00;99.90
15713;DHT22;7957;51.608;6.916;2022-10-28T06:08:09;15.00;99.90
15713;DHT22;7957;51.608;6.916;2022-10-28T06:10:37;15.00;99.90
15713;DHT22;7957;51.608;6.916;2022-10-28T06:13:03;15.00;99.90
15713;DHT22;7957;51.608;6.916;2022-10-28T06:15:31;15.00;99.90
15713;DHT22;7957;51.608;6.916;2022-10-28T06:17:58;15.00;99.90
15713;DHT22;7957;51.608;6.916;2022-10-28T06:20:26;15.00;99.90
15713;DHT22;7957;51.608;6.916;2022-10-28T06:22:54;15.00;99.90
15713;DHT22;7957;51.608;6.916;2022-10-28T06:25:23;15.00;99.90
15713;DHT22;7957;51.608;6.916;2022-10-28T06:27:53;15.00;99.90
15713;DHT22;7957;51.608;6.916;2022-10-28T06:30:21;15.00;99.90
15713;DHT22;7957;51.608;6.916;2022-10-28T06:32:48;15.00;99.90
15713;DHT22;7957;51.608;6.916;2022-10-28T06:35:15;15.00;99.90
15713;DHT22;7957;51.608;6.916;2022-10-28T06:37:43;15.00;99.90
15713;DHT22;7957;51.608;6.916;2022-10-28T06:40:10;15.00;99.90
15713;DHT22;7957;51.608;6.916;2022-10-28T06:42:38;15.00;99.90
15713;DHT22;7957;51.608;6.916;2022-10-28T06:45:06;15.00;99.90
15713;DHT22;7957;51.608;6.916;2022-10-28T06:47:33;15.10;99.90
15713;DHT22;7957;51.608;6.916;2022-10-28T06:50:00;15.10;99.90
15713;DHT22;7957;51.608;6.916;2022-10-28T06:52:26;15.00;99.90
15713;DHT22;7957;51.608;6.916;2022-10-28T06:54:55;15.00;99.90
15713;DHT22;7957;51.608;6.916;2022-10-28T06:57:23;15.00;99.90
15713;DHT22;7957;51.608;6.916;2022-10-28T06:59:50;15.10;99.90
15713;DHT22;7957;51.608;6.916;2022-10-28T07:02:17;15.10;99.90
15713;DHT22;7957;51.608;6.916;2022-10-28T07:04:44;15.10;99.90
15713;DHT22;7957;51.608;6.916;2022-10-28T07:07:16;15.10;99.90
15713;DHT22;7957;51.608;6.916;2022-10-28T07:09:44;15.10;99.90
15713;DHT22;7957;51.608;6.916;2022-10-28T07:12:12;15.10;99.90
15713;DHT22;7957;51.608;6.916;2022-10-28T07:14:39;15.20;99.90
15713;DHT22;7957;51.608;6.916;2022-10-28T07:17:09;15.20;99.90
15713;DHT22;7957;51.608;6.916;2022-10-28T07:19:36;15.20;99.90
15713;DHT22;7957;51.608;6.916;2022-10-28T07:22:03;15.20;99.90
15713;DHT22;7957;51.608;6.916;2022-10-28T07:24:30;15.30;99.90
15713;DHT22;7957;51.608;6.916;2022-10-28T07:26:57;15.30;99.90
15713;DHT22;7957;51.608;6.916;2022-10-28T07:29:25;15.40;99.90
15713;DHT22;7957;51.608;6.916;2022-10-28T07:31:53;15.70;99.90
15713;DHT22;7957;51.608;6.916;2022-10-28T07:34:21;15.90;99.90
15713;DHT22;7957;51.608;6.916;2022-10-28T07:36:48;16.10;99.90
15713;DHT22;7957;51.608;6.916;2022-10-28T07:39:15;16.10;99.90
15713;DHT22;7957;51.608;6.916;2022-10-28T07:41:42;15.90;99.90
15713;DHT22;7957;51.608;6.916;2022-10-28T07:44:09;15.80;99.90
15713;DHT22;7957;51.608;6.916;2022-10-28T07:46:38;15.80;99.90
15713;DHT22;7957;51.608;6.916;2022-10-28T07:49:05;15.70;99.90
15713;DHT22;7957;51.608;6.916;2022-10-28T07:51:32;15.70;99.90
15713;DHT22;7957;51.608;6.916;2022-10-28T07:53:59;15.70;99.90
15713;DHT22;7957;51.608;6.916;2022-10-28T07:56:26;15.70;99.90
15713;DHT22;7957;51.608;6.916;2022-10-28T07:58:53;15.70;99.90
15713;DHT22;7957;51.608;6.916;2022-10-28T08:01:20;15.70;99.90
15713;DHT22;7957;51.608;6.916;2022-10-28T08:03:48;15.70;99.90
15713;DHT22;7957;51.608;6.916;2022-10-28T08:06:17;15.80;99.90
15713;DHT22;7957;51.608;6.916;2022-10-28T08:08:46;15.80;99.90
15713;DHT22;7957;51.608;6.916;2022-10-28T08:11:15;15.80;99.90
15713;DHT22;7957;51.608;6.916;2022-10-28T08:13:43;15.80;99.90
15713;DHT22;7957;51.608;6.916;2022-10-28T08:16:10;15.90;99.90
15713;DHT22;7957;51.608;6.916;2022-10-28T08:18:38;15.90;99.90
15713;DHT22;7957;51.608;6.916;2022-10-28T08:21:08;15.90;99.90
15713;DHT22;7957;51.608;6.916;2022-10-28T08:23:35;15.90;99.90
15713;DHT22;7957;51.608;6.916;2022-10-28T08:26:03;15.90;99.90
15713;DHT22;7957;51.608;6.916;2022-10-28T08:28:30;16.00;99.90
15713;DHT22;7957;51.608;6.916;2022-10-28T08:30:59;16.00;99.90
15713;DHT22;7957;51.608;6.916;2022-10-28T08:33:26;16.10;99.90
15713;DHT22;7957;51.608;6.916;2022-10-28T08:35:53;16.20;99.90
15713;DHT22;7957;51.608;6.916;2022-10-28T08:38:22;16.30;99.90
15713;DHT22;7957;51.608;6.916;2022-10-28T08:40:54;16.40;99.90
15713;DHT22;7957;51.608;6.916;2022-10-28T08:43:26;16.50;99.90
15713;DHT22;7957;51.608;6.916;2022-10-28T08:46:00;16.50;99.90
15713;DHT22;7957;51.608;6.916;2022-10-28T08:48:30;16.70;99.90
15713;DHT22;7957;51.608;6.916;2022-10-28T08:51:03;16.80;99.90
15713;DHT22;7957;51.608;6.916;2022-10-28T08:53:36;16.80;99.90
15713;DHT22;7957;51.608;6.916;2022-10-28T08:56:09;16.90;99.90
15713;DHT22;7957;51.608;6.916;2022-10-28T08:58:41;17.00;99.90
15713;DHT22;7957;51.608;6.916;2022-10-28T09:01:17;17.10;99.90
15713;DHT22;7957;51.608;6.916;2022-10-28T09:03:49;17.10;99.90
15713;DHT22;7957;51.608;6.916;2022-10-28T09:06:17;17.10;99.90
15713;DHT22;7957;51.608;6.916;2022-10-28T09:08:47;17.20;99.90
15713;DHT22;7957;51.608;6.916;2022-10-28T09:14:18;17.30;99.90
15713;DHT22;7957;51.608;6.916;2022-10-28T09:16:46;17.60;99.90
15713;DHT22;7957;51.608;6.916;2022-10-28T09:19:23;18.00;99.90
15713;DHT22;7957;51.608;6.916;2022-10-28T09:22:00;18.10;99.90
15713;DHT22;7957;51.608;6.916;2022-10-28T09:24:40;18.20;99.90
15713;DHT22;7957;51.608;6.916;2022-10-28T09:27:15;18.40;99.90
15713;DHT22;7957;51.608;6.916;2022-10-28T09:29:52;18.50;99.90
15713;DHT22;7957;51.608;6.916;2022-10-28T09:32:24;18.60;99.90
15713;DHT22;7957;51.608;6.916;2022-10-28T09:34:58;18.70;99.90
15713;DHT22;7957;51.608;6.916;2022-10-28T09:40:55;18.80;99.90
15713;DHT22;7957;51.608;6.916;2022-10-28T09:43:25;19.00;99.90
15713;DHT22;7957;51.608;6.916;2022-10-28T09:45:59;19.20;99.90
15713;DHT22;7957;51.608;6.916;2022-10-28T09:48:30;19.40;99.90
15713;DHT22;7957;51.608;6.916;2022-10-28T09:50:59;19.30;99.90
15713;DHT22;7957;51.608;6.916;2022-10-28T09:53:34;19.30;99.90
15713;DHT22;7957;51.608;6.916;2022-10-28T09:56:06;19.40;99.90
15713;DHT22;7957;51.608;6.916;2022-10-28T09:58:33;19.40;99.90
15713;DHT22;7957;51.608;6.916;2022-10-28T10:01:02;19.40;99.90
15713;DHT22;7957;51.608;6.916;2022-10-28T10:03:30;19.30;99.90
15713;DHT22;7957;51.608;6.916;2022-10-28T10:06:01;19.40;99.90
15713;DHT22;7957;51.608;6.916;2022-10-28T10:08:29;19.50;99.90
15713;DHT22;7957;51.608;6.916;2022-10-28T10:11:00;19.50;99.90
15713;DHT22;7957;51.608;6.916;2022-10-28T10:13:34;19.50;99.90
15713;DHT22;7957;51.608;6.916;2022-10-28T10:16:04;19.50;99.90
15713;DHT22;7957;51.608;6.916;2022-10-28T10:18:32;19.50;99.90
15713;DHT22;7957;51.608;6.916;2022-10-28T10:21:00;19.50;99.90
15713;DHT22;7957;51.608;6.916;2022-10-28T10:23:28;19.50;99.90
15713;DHT22;7957;51.608;6.916;2022-10-28T10:26:00;19.60;99.90
15713;DHT22;7957;51.608;6.916;2022-10-28T10:28:28;19.60;99.90
15713;DHT22;7957;51.608;6.916;2022-10-28T10:30:59;19.60;99.90
15713;DHT22;7957;51.608;6.916;2022-10-28T10:33:30;19.60;99.90
15713;DHT22;7957;51.608;6.916;2022-10-28T10:36:00;19.70;99.90
15713;DHT22;7957;51.608;6.916;2022-10-28T10:38:28;19.80;1.00
15713;DHT22;7957;51.608;6.916;2022-10-28T10:40:55;19.90;1.00
15713;DHT22;7957;51.608;6.916;2022-10-28T10:43:28;19.90;1.00
15713;DHT22;7957;51.608;6.916;2022-10-28T10:46:02;19.90;99.90
15713;DHT22;7957;51.608;6.916;2022-10-28T10:48:30;20.00;52.10
15713;DHT22;7957;51.608;6.916;2022-10-28T10:51:04;20.00;1.00
15713;DHT22;7957;51.608;6.916;2022-10-28T10:53:32;20.00;1.00
15713;DHT22;7957;51.608;6.916;2022-10-28T10:56:01;20.10;99.90
15713;DHT22;7957;51.608;6.916;2022-10-28T10:58:31;20.10;6.20
15713;DHT22;7957;51.608;6.916;2022-10-28T11:01:02;20.20;1.00
15713;DHT22;7957;51.608;6.916;2022-10-28T11:03:33;20.20;1.00
15713;DHT22;7957;51.608;6.916;2022-10-28T11:06:02;20.20;99.90
15713;DHT22;7957;51.608;6.916;2022-10-28T11:08:33;20.20;99.90
15713;DHT22;7957;51.608;6.916;2022-10-28T11:11:10;20.20;99.90
15713;DHT22;7957;51.608;6.916;2022-10-28T11:13:38;20.20;99.90
15713;DHT22;7957;51.608;6.916;2022-10-28T11:16:16;20.20;42.20
15713;DHT22;7957;51.608;6.916;2022-10-28T11:18:46;20.30;1.00
15713;DHT22;7957;51.608;6.916;2022-10-28T11:21:30;20.40;1.00
15713;DHT22;7957;51.608;6.916;2022-10-28T11:24:21;20.50;1.00
15713;DHT22;7957;51.608;6.916;2022-10-28T11:26:58;20.60;1.00
15713;DHT22;7957;51.608;6.916;2022-10-28T11:29:27;20.60;1.00
15713;DHT22;7957;51.608;6.916;2022-10-28T11:32:08;20.60;1.00
15713;DHT22;7957;51.608;6.916;2022-10-28T11:35:06;20.70;1.00
15713;DHT22;7957;51.608;6.916;2022-10-28T11:37:50;20.70;1.00
15713;DHT22;7957;51.608;6.916;2022-10-28T11:40:26;20.70;99.90
15713;DHT22;7957;51.608;6.916;2022-10-28T11:43:07;20.80;99.90
15713;DHT22;7957;51.608;6.916;2022-10-28T11:45:42;20.80;99.90
15713;DHT22;7957;51.608;6.916;2022-10-28T11:48:24;20.80;99.90
15713;DHT22;7957;51.608;6.916;2022-10-28T11:51:07;20.80;99.90
15713;DHT22;7957;51.608;6.916;2022-10-28T11:53:50;20.90;99.90
15713;DHT22;7957;51.608;6.916;2022-10-28T11:56:31;21.00;99.90
15713;DHT22;7957;51.608;6.916;2022-10-28T11:59:10;21.10;99.90
15713;DHT22;7957;51.608;6.916;2022-10-28T12:01:47;21.20;99.90
15713;DHT22;7957;51.608;6.916;2022-10-28T12:04:48;21.20;89.30
15713;DHT22;7957;51.608;6.916;2022-10-28T12:07:26;21.30;58.20
15713;DHT22;7957;51.608;6.916;2022-10-28T12:10:07;21.40;1.00
15713;DHT22;7957;51.608;6.916;2022-10-28T12:12:38;21.50;1.00
15713;DHT22;7957;51.608;6.916;2022-10-28T12:15:16;21.50;1.00
15713;DHT22;7957;51.608;6.916;2022-10-28T12:21:14;21.60;1.00
15713;DHT22;7957;51.608;6.916;2022-10-28T12:23:44;21.70;99.90
15713;DHT22;7957;51.608;6.916;2022-10-28T12:26:14;21.70;99.90
15713;DHT22;7957;51.608;6.916;2022-10-28T12:28:44;21.70;99.90
15713;DHT22;7957;51.608;6.916;2022-10-28T12:31:19;21.80;99.90
15713;DHT22;7957;51.608;6.916;2022-10-28T12:33:49;21.80;99.90
15713;DHT22;7957;51.608;6.916;2022-10-28T12:36:29;21.80;99.90
15713;DHT22;7957;51.608;6.916;2022-10-28T12:39:01;21.90;1.00
15713;DHT22;7957;51.608;6.916;2022-10-28T12:41:43;21.90;1.00
15713;DHT22;7957;51.608;6.916;2022-10-28T12:44:14;21.90;1.00
15713;DHT22;7957;51.608;6.916;2022-10-28T12:46:47;22.00;1.00
15713;DHT22;7957;51.608;6.916;2022-10-28T12:49:19;21.90;1.00
15713;DHT22;7957;51.608;6.916;2022-10-28T12:51:51;21.90;1.00
15713;DHT22;7957;51.608;6.916;2022-10-28T12:54:22;22.00;1.00
15713;DHT22;7957;51.608;6.916;2022-10-28T12:56:56;22.00;1.00
15713;DHT22;7957;51.608;6.916;2022-10-28T12:59:30;22.00;1.00
15713;DHT22;7957;51.608;6.916;2022-10-28T13:01:59;22.00;1.00
15713;DHT22;7957;51.608;6.916;2022-10-28T13:04:27;22.00;1.00
15713;DHT22;7957;51.608;6.916;2022-10-28T13:07:10;22.00;1.00
15713;DHT22;7957;51.608;6.916;2022-10-28T13:09:46;22.00;1.00
15713;DHT22;7957;51.608;6.916;2022-10-28T13:15:48;22.00;1.00
15713;DHT22;7957;51.608;6.916;2022-10-28T13:19:02;21.90;1.00
15713;DHT22;7957;51.608;6.916;2022-10-28T13:22:04;21.80;1.00
15713;DHT22;7957;51.608;6.916;2022-10-28T13:24:38;21.80;1.00
15713;DHT22;7957;51.608;6.916;2022-10-28T13:27:10;21.70;1.00
15713;DHT22;7957;51.608;6.916;2022-10-28T13:29:40;21.70;1.00
15713;DHT22;7957;51.608;6.916;2022-10-28T13:32:27;21.60;1.00
15713;DHT22;7957;51.608;6.916;2022-10-28T13:34:55;21.60;1.00
15713;DHT22;7957;51.608;6.916;2022-10-28T13:37:29;21.60;1.00
15713;DHT22;7957;51.608;6.916;2022-10-28T13:39:57;21.60;1.00
15713;DHT22;7957;51.608;6.916;2022-10-28T13:42:44;21.60;1.00
15713;DHT22;7957;51.608;6.916;2022-10-28T13:48:43;21.60;5.60
15713;DHT22;7957;51.608;6.916;2022-10-28T13:51:32;21.60;51.90
15713;DHT22;7957;51.608;6.916;2022-10-28T13:54:00;21.60;99.90
15713;DHT22;7957;51.608;6.916;2022-10-28T13:56:43;21.60;99.90
15713;DHT22;7957;51.608;6.916;2022-10-28T13:59:23;21.60;99.90
15713;DHT22;7957;51.608;6.916;2022-10-28T14:01:56;21.60;99.90
15713;DHT22;7957;51.608;6.916;2022-10-28T14:04:28;21.60;99.90
15713;DHT22;7957;51.608;6.916;2022-10-28T14:09:43;21.60;37.60
15713;DHT22;7957;51.608;6.916;2022-10-28T14:12:16;21.50;30.60
15713;DHT22;7957;51.608;6.916;2022-10-28T14:14:57;21.50;1.00
15713;DHT22;7957;51.608;6.916;2022-10-28T14:17:36;21.40;1.00
15713;DHT22;7957;51.608;6.916;2022-10-28T14:20:17;21.50;1.00
15713;DHT22;7957;51.608;6.916;2022-10-28T14:22:45;21.40;1.00
15713;DHT22;7957;51.608;6.916;2022-10-28T14:31:53;21.40;99.90
15713;DHT22;7957;51.608;6.916;2022-10-28T14:34:36;21.40;99.90
15713;DHT22;7957;51.608;6.916;2022-10-28T14:37:16;21.40;99.90
15713;DHT22;7957;51.608;6.916;2022-10-28T14:40:00;21.30;99.90
15713;DHT22;7957;51.608;6.916;2022-10-28T14:42:40;21.20;99.90
15713;DHT22;7957;51.608;6.916;2022-10-28T14:45:22;21.20;99.90
15713;DHT22;7957;51.608;6.916;2022-10-28T14:48:11;21.10;64.00
15713;DHT22;7957;51.608;6.916;2022-10-28T14:50:44;21.10;66.60
15713;DHT22;7957;51.608;6.916;2022-10-28T14:53:17;21.00;19.20
15713;DHT22;7957;51.608;6.916;2022-10-28T14:55:47;21.00;7.10
15713;DHT22;7957;51.608;6.916;2022-10-28T14:58:20;20.90;12.20
15713;DHT22;7957;51.608;6.916;2022-10-28T15:01:08;20.90;16.30
15713;DHT22;7957;51.608;6.916;2022-10-28T15:03:41;20.90;23.10
15713;DHT22;7957;51.608;6.916;2022-10-28T15:06:23;20.80;25.70
15713;DHT22;7957;51.608;6.916;2022-10-28T15:08:52;20.80;1.00
15713;DHT22;7957;51.608;6.916;2022-10-28T15:11:19;20.80;1.00
15713;DHT22;7957;51.608;6.916;2022-10-28T15:13:48;20.70;11.60
15713;DHT22;7957;51.608;6.916;2022-10-28T15:16:19;20.70;18.30
15713;DHT22;7957;51.608;6.916;2022-10-28T15:18:48;20.70;41.20
15713;DHT22;7957;51.608;6.916;2022-10-28T15:21:18;20.60;63.60
15713;DHT22;7957;51.608;6.916;2022-10-28T15:23:58;20.60;55.60
15713;DHT22;7957;51.608;6.916;2022-10-28T15:26:24;20.50;87.20
15713;DHT22;7957;51.608;6.916;2022-10-28T15:28:52;20.50;92.80
15713;DHT22;7957;51.608;6.916;2022-10-28T15:31:21;20.40;99.90
15713;DHT22;7957;51.608;6.916;2022-10-28T15:33:49;20.40;99.90
15713;DHT22;7957;51.608;6.916;2022-10-28T15:36:18;20.30;99.90
15713;DHT22;7957;51.608;6.916;2022-10-28T15:38:48;20.30;99.90
15713;DHT22;7957;51.608;6.916;2022-10-28T15:41:37;20.20;99.90
15713;DHT22;7957;51.608;6.916;2022-10-28T15:44:04;20.10;99.90
15713;DHT22;7957;51.608;6.916;2022-10-28T15:46:32;20.00;99.90
15713;DHT22;7957;51.608;6.916;2022-10-28T15:49:01;20.00;99.90
15713;DHT22;7957;51.608;6.916;2022-10-28T15:51:28;19.90;99.90
15713;DHT22;7957;51.608;6.916;2022-10-28T15:54:08;19.80;1.00
15713;DHT22;7957;51.608;6.916;2022-10-28T15:56:52;19.80;1.00
15713;DHT22;7957;51.608;6.916;2022-10-28T15:59:21;19.70;1.00
15713;DHT22;7957;51.608;6.916;2022-10-28T16:01:49;19.70;1.00
15713;DHT22;7957;51.608;6.916;2022-10-28T16:04:44;19.60;1.00
15713;DHT22;7957;51.608;6.916;2022-10-28T16:07:12;19.60;1.00
15713;DHT22;7957;51.608;6.916;2022-10-28T16:09:42;19.50;12.50
15713;DHT22;7957;51.608;6.916;2022-10-28T16:12:14;19.50;92.10
15713;DHT22;7957;51.608;6.916;2022-10-28T16:14:43;19.50;99.90
15713;DHT22;7957;51.608;6.916;2022-10-28T16:17:15;19.50;99.90
15713;DHT22;7957;51.608;6.916;2022-10-28T16:19:48;19.40;99.90
15713;DHT22;7957;51.608;6.916;2022-10-28T16:22:16;19.40;99.90
15713;DHT22;7957;51.608;6.916;2022-10-28T16:24:44;19.40;99.90
15713;DHT22;7957;51.608;6.916;2022-10-28T16:27:20;19.30;1.00
15713;DHT22;7957;51.608;6.916;2022-10-28T16:29:47;19.30;1.00
15713;DHT22;7957;51.608;6.916;2022-10-28T16:32:16;19.30;1.00
15713;DHT22;7957;51.608;6.916;2022-10-28T16:34:45;19.20;1.00
15713;DHT22;7957;51.608;6.916;2022-10-28T16:37:19;19.20;1.00
15713;DHT22;7957;51.608;6.916;2022-10-28T16:39:46;19.20;1.00
15713;DHT22;7957;51.608;6.916;2022-10-28T16:42:13;19.10;1.00
15713;DHT22;7957;51.608;6.916;2022-10-28T16:44:40;19.10;1.00
15713;DHT22;7957;51.608;6.916;2022-10-28T16:47:11;19.00;63.60
15713;DHT22;7957;51.608;6.916;2022-10-28T16:49:39;19.00;99.90
15713;DHT22;7957;51.608;6.916;2022-10-28T16:52:13;18.90;99.90
15713;DHT22;7957;51.608;6.916;2022-10-28T16:54:41;18.90;99.90
15713;DHT22;7957;51.608;6.916;2022-10-28T16:57:08;18.90;99.90
15713;DHT22;7957;51.608;6.916;2022-10-28T16:59:35;18.90;99.90
15713;DHT22;7957;51.608;6.916;2022-10-28T17:02:02;18.80;1.00
15713;DHT22;7957;51.608;6.916;2022-10-28T17:04:29;18.80;1.00
15713;DHT22;7957;51.608;6.916;2022-10-28T17:06:57;18.70;1.00
15713;DHT22;7957;51.608;6.916;2022-10-28T17:09:25;18.70;1.00
15713;DHT22;7957;51.608;6.916;2022-10-28T17:11:52;18.60;1.00
15713;DHT22;7957;51.608;6.916;2022-10-28T17:14:19;18.60;56.70
15713;DHT22;7957;51.608;6.916;2022-10-28T17:16:46;18.60;99.90
15713;DHT22;7957;51.608;6.916;2022-10-28T17:19:13;18.50;99.90
15713;DHT22;7957;51.608;6.916;2022-10-28T17:21:40;18.50;99.90
15713;DHT22;7957;51.608;6.916;2022-10-28T17:24:07;18.40;1.00
15713;DHT22;7957;51.608;6.916;2022-10-28T17:26:36;18.40;1.00
15713;DHT22;7957;51.608;6.916;2022-10-28T17:29:02;18.40;1.00
15713;DHT22;7957;51.608;6.916;2022-10-28T17:31:29;18.40;1.00
15713;DHT22;7957;51.608;6.916;2022-10-28T17:33:56;18.30;80.00
15713;DHT22;7957;51.608;6.916;2022-10-28T17:36:23;18.30;99.90
15713;DHT22;7957;51.608;6.916;2022-10-28T17:38:50;18.30;99.90
15713;DHT22;7957;51.608;6.916;2022-10-28T17:41:17;18.20;99.90
15713;DHT22;7957;51.608;6.916;2022-10-28T17:43:46;18.20;1.00
15713;DHT22;7957;51.608;6.916;2022-10-28T17:46:13;18.10;1.00
15713;DHT22;7957;51.608;6.916;2022-10-28T17:48:40;18.10;1.00
15713;DHT22;7957;51.608;6.916;2022-10-28T17:51:07;18.10;31.40
15713;DHT22;7957;51.608;6.916;2022-10-28T17:53:34;18.00;99.90
15713;DHT22;7957;51.608;6.916;2022-10-28T17:56:03;18.00;99.90
15713;DHT22;7957;51.608;6.916;2022-10-28T17:58:31;18.00;1.00
15713;DHT22;7957;51.608;6.916;2022-10-28T18:01:00;17.90;1.00
15713;DHT22;7957;51.608;6.916;2022-10-28T18:03:29;17.90;1.00
15713;DHT22;7957;51.608;6.916;2022-10-28T18:06:00;17.90;1.00
15713;DHT22;7957;51.608;6.916;2022-10-28T18:08:31;17.80;94.70
15713;DHT22;7957;51.608;6.916;2022-10-28T18:10:58;17.80;99.90
15713;DHT22;7957;51.608;6.916;2022-10-28T18:13:26;17.80;99.90
15713;DHT22;7957;51.608;6.916;2022-10-28T18:15:54;17.70;99.90
15713;DHT22;7957;51.608;6.916;2022-10-28T18:18:24;17.70;99.90
15713;DHT22;7957;51.608;6.916;2022-10-28T18:20:51;17.70;99.90
15713;DHT22;7957;51.608;6.916;2022-10-28T18:23:18;17.70;99.90
15713;DHT22;7957;51.608;6.916;2022-10-28T18:25:45;17.60;99.90
15713;DHT22;7957;51.608;6.916;2022-10-28T18:28:12;17.60;99.90
15713;DHT22;7957;51.608;6.916;2022-10-28T18:30:42;17.60;99.90
15713;DHT22;7957;51.608;6.916;2022-10-28T18:33:08;17.50;99.90
15713;DHT22;7957;51.608;6.916;2022-10-28T18:35:37;17.50;99.90
15713;DHT22;7957;51.608;6.916;2022-10-28T18:38:04;17.50;99.90
15713;DHT22;7957;51.608;6.916;2022-10-28T18:40:31;17.40;99.90
15713;DHT22;7957;51.608;6.916;2022-10-28T18:42:58;17.50;99.90
15713;DHT22;7957;51.608;6.916;2022-10-28T18:45:24;17.40;99.90
15713;DHT22;7957;51.608;6.916;2022-10-28T18:47:51;17.40;99.90
15713;DHT22;7957;51.608;6.916;2022-10-28T18:50:19;17.40;99.90
15713;DHT22;7957;51.608;6.916;2022-10-28T18:52:47;17.40;99.90
15713;DHT22;7957;51.608;6.916;2022-10-28T18:55:14;17.40;99.90
15713;DHT22;7957;51.608;6.916;2022-10-28T18:57:41;17.30;99.90
15713;DHT22;7957;51.608;6.916;2022-10-28T19:00:09;17.30;99.90
15713;DHT22;7957;51.608;6.916;2022-10-28T19:02:36;17.30;99.90